sensor_id;sensor_type;location;lat;lon;timestamp;pressure;altitude;pressure_sealevel;temperature;humidity
29197;BME280;62796;42.654;23.316;2022-08-19T00:02:22;94314.78;;;26.42;47.96
29197;BME280;62796;42.654;23.316;2022-08-19T00:04:47;94309.50;;;26.22;47.70
29197;BME280;62796;42.654;23.316;2022-08-19T00:07:20;94303.88;;;26.08;47.92
29197;BME280;62796;42.654;23.316;2022-08-19T00:09:46;94311.75;;;26.17;47.84
29197;BME280;62796;42.654;23.316;2022-08-19T00:12:12;94317.59;;;26.19;47.99
29197;BME280;62796;42.654;23.316;2022-08-19T00:14:38;94319.22;;;26.23;47.86
29197;BME280;62796;42.654;23.316;2022-08-19T00:17:06;94315.56;;;26.42;47.31
29197;BME280;62796;42.654;23.316;2022-08-19T00:19:32;94314.06;;;26.48;47.18
29197;BME280;62796;42.654;23.316;2022-08-19T00:21:58;94313.22;;;26.41;47.17
29197;BME280;62796;42.654;23.316;2022-08-19T00:24:24;94331.03;;;26.38;47.41
29197;BME280;62796;42.654;23.316;2022-08-19T00:26:50;94327.66;;;26.14;47.43
29197;BME280;62796;42.654;23.316;2022-08-19T00:29:22;94327.88;;;26.02;47.58
29197;BME280;62796;42.654;23.316;2022-08-19T00:31:49;94329.78;;;25.98;47.44
29197;BME280;62796;42.654;23.316;2022-08-19T00:34:15;94329.38;;;25.96;47.73
29197;BME280;62796;42.654;23.316;2022-08-19T00:36:42;94305.00;;;25.76;47.63
29197;BME280;62796;42.654;23.316;2022-08-19T00:39:08;94330.06;;;25.93;47.54
29197;BME280;62796;42.654;23.316;2022-08-19T00:41:34;94327.06;;;25.98;47.52
29197;BME280;62796;42.654;23.316;2022-08-19T00:44:15;94324.84;;;26.07;47.54
29197;BME280;62796;42.654;23.316;2022-08-19T00:46:43;94326.38;;;26.05;47.84
29197;BME280;62796;42.654;23.316;2022-08-19T00:49:12;94306.09;;;25.99;47.69
29197;BME280;62796;42.654;23.316;2022-08-19T00:51:41;94301.44;;;25.99;47.71
29197;BME280;62796;42.654;23.316;2022-08-19T00:54:07;94314.78;;;26.11;47.42
29197;BME280;62796;42.654;23.316;2022-08-19T00:56:35;94310.38;;;26.30;46.77
29197;BME280;62796;42.654;23.316;2022-08-19T00:59:01;94291.09;;;26.42;46.62
29197;BME280;62796;42.654;23.316;2022-08-19T01:01:27;94302.22;;;26.30;47.17
29197;BME280;62796;42.654;23.316;2022-08-19T01:03:53;94319.63;;;26.25;47.47
29197;BME280;62796;42.654;23.316;2022-08-19T01:06:18;94309.69;;;26.06;47.54
29197;BME280;62796;42.654;23.316;2022-08-19T01:08:44;94318.53;;;26.00;47.52
29197;BME280;62796;42.654;23.316;2022-08-19T01:11:09;94306.13;;;26.02;48.04
29197;BME280;62796;42.654;23.316;2022-08-19T01:13:36;94312.53;;;25.90;48.60
29197;BME280;62796;42.654;23.316;2022-08-19T01:16:08;94320.59;;;25.83;49.24
29197;BME280;62796;42.654;23.316;2022-08-19T01:18:40;94297.38;;;25.59;49.75
29197;BME280;62796;42.654;23.316;2022-08-19T01:21:12;94317.88;;;25.56;49.89
29197;BME280;62796;42.654;23.316;2022-08-19T01:23:43;94309.16;;;25.44;50.56
29197;BME280;62796;42.654;23.316;2022-08-19T01:26:15;94293.28;;;25.23;50.86
29197;BME280;62796;42.654;23.316;2022-08-19T01:28:43;94302.66;;;25.25;50.66
29197;BME280;62796;42.654;23.316;2022-08-19T01:31:18;94307.72;;;25.27;50.67
29197;BME280;62796;42.654;23.316;2022-08-19T01:33:44;94319.47;;;25.11;51.17
29197;BME280;62796;42.654;23.316;2022-08-19T01:36:16;94320.53;;;25.07;50.34
29197;BME280;62796;42.654;23.316;2022-08-19T01:38:47;94319.34;;;25.04;50.73
29197;BME280;62796;42.654;23.316;2022-08-19T01:41:13;94307.56;;;24.96;50.72
29197;BME280;62796;42.654;23.316;2022-08-19T01:43:39;94316.69;;;25.08;50.50
29197;BME280;62796;42.654;23.316;2022-08-19T01:46:05;94317.06;;;25.06;51.00
29197;BME280;62796;42.654;23.316;2022-08-19T01:48:39;94293.53;;;24.91;50.55
29197;BME280;62796;42.654;23.316;2022-08-19T01:51:06;94320.91;;;25.05;50.94
29197;BME280;62796;42.654;23.316;2022-08-19T01:53:32;94317.06;;;25.06;51.13
29197;BME280;62796;42.654;23.316;2022-08-19T01:55:58;94317.13;;;25.10;50.76
29197;BME280;62796;42.654;23.316;2022-08-19T01:58:27;94312.16;;;25.15;50.69
29197;BME280;62796;42.654;23.316;2022-08-19T02:00:55;94312.53;;;25.14;50.29
29197;BME280;62796;42.654;23.316;2022-08-19T02:03:21;94317.59;;;25.15;50.83
29197;BME280;62796;42.654;23.316;2022-08-19T02:05:47;94323.03;;;25.15;50.76
29197;BME280;62796;42.654;23.316;2022-08-19T02:08:13;94320.97;;;25.09;51.16
29197;BME280;62796;42.654;23.316;2022-08-19T02:10:41;94316.88;;;24.95;51.59
29197;BME280;62796;42.654;23.316;2022-08-19T02:13:07;94310.25;;;24.73;52.29
29197;BME280;62796;42.654;23.316;2022-08-19T02:15:33;94305.00;;;24.61;52.65
29197;BME280;62796;42.654;23.316;2022-08-19T02:17:58;94309.34;;;24.66;52.38
29197;BME280;62796;42.654;23.316;2022-08-19T02:20:24;94314.59;;;24.55;52.60
29197;BME280;62796;42.654;23.316;2022-08-19T02:22:49;94306.09;;;24.56;52.75
29197;BME280;62796;42.654;23.316;2022-08-19T02:25:15;94293.84;;;24.47;51.84
29197;BME280;62796;42.654;23.316;2022-08-19T02:27:41;94319.72;;;24.60;51.79
29197;BME280;62796;42.654;23.316;2022-08-19T02:30:10;94306.34;;;24.51;51.37
29197;BME280;62796;42.654;23.316;2022-08-19T02:32:36;94311.16;;;24.58;51.03
29197;BME280;62796;42.654;23.316;2022-08-19T02:35:01;94316.56;;;24.77;50.91
29197;BME280;62796;42.654;23.316;2022-08-19T02:37:27;94299.47;;;24.77;50.78
29197;BME280;62796;42.654;23.316;2022-08-19T02:40:11;94305.25;;;24.95;50.63
29197;BME280;62796;42.654;23.316;2022-08-19T02:42:37;94306.91;;;25.03;50.24
29197;BME280;62796;42.654;23.316;2022-08-19T02:45:03;94311.03;;;25.16;49.96
29197;BME280;62796;42.654;23.316;2022-08-19T02:47:30;94322.31;;;24.95;50.66
29197;BME280;62796;42.654;23.316;2022-08-19T02:49:55;94301.72;;;24.71;50.95
29197;BME280;62796;42.654;23.316;2022-08-19T02:52:20;94326.75;;;24.64;51.73
29197;BME280;62796;42.654;23.316;2022-08-19T02:54:48;94325.56;;;24.42;52.28
29197;BME280;62796;42.654;23.316;2022-08-19T02:57:14;94321.47;;;24.13;53.13
29197;BME280;62796;42.654;23.316;2022-08-19T02:59:39;94332.22;;;24.10;52.80
29197;BME280;62796;42.654;23.316;2022-08-19T03:02:05;94334.31;;;24.16;52.61
29197;BME280;62796;42.654;23.316;2022-08-19T03:04:30;94323.91;;;24.18;52.86
29197;BME280;62796;42.654;23.316;2022-08-19T03:06:55;94336.03;;;24.24;52.23
29197;BME280;62796;42.654;23.316;2022-08-19T03:09:21;94328.47;;;24.34;51.54
29197;BME280;62796;42.654;23.316;2022-08-19T03:11:46;94320.34;;;24.34;51.53
29197;BME280;62796;42.654;23.316;2022-08-19T03:14:12;94327.41;;;24.38;51.82
29197;BME280;62796;42.654;23.316;2022-08-19T03:16:46;94324.84;;;24.45;51.76
29197;BME280;62796;42.654;23.316;2022-08-19T03:19:13;94328.63;;;24.60;51.49
29197;BME280;62796;42.654;23.316;2022-08-19T03:21:39;94319.97;;;24.74;50.81
29197;BME280;62796;42.654;23.316;2022-08-19T03:24:07;94320.13;;;24.81;51.00
29197;BME280;62796;42.654;23.316;2022-08-19T03:26:38;94307.63;;;24.77;50.76
29197;BME280;62796;42.654;23.316;2022-08-19T03:29:05;94326.16;;;24.94;50.68
29197;BME280;62796;42.654;23.316;2022-08-19T03:31:30;94319.53;;;24.92;51.34
29197;BME280;62796;42.654;23.316;2022-08-19T03:33:56;94316.50;;;24.74;51.75
29197;BME280;62796;42.654;23.316;2022-08-19T03:36:25;94328.56;;;24.57;52.35
29197;BME280;62796;42.654;23.316;2022-08-19T03:38:58;94324.50;;;24.47;52.44
29197;BME280;62796;42.654;23.316;2022-08-19T03:41:28;94336.31;;;24.39;52.56
29197;BME280;62796;42.654;23.316;2022-08-19T03:43:55;94340.16;;;24.38;52.69
29197;BME280;62796;42.654;23.316;2022-08-19T03:46:27;94336.19;;;24.32;52.91
29197;BME280;62796;42.654;23.316;2022-08-19T03:48:54;94328.13;;;24.16;53.06
29197;BME280;62796;42.654;23.316;2022-08-19T03:51:30;94349.75;;;24.32;53.24
29197;BME280;62796;42.654;23.316;2022-08-19T03:53:57;94351.66;;;24.31;53.22
29197;BME280;62796;42.654;23.316;2022-08-19T03:56:23;94349.75;;;24.32;52.85
29197;BME280;62796;42.654;23.316;2022-08-19T03:58:53;94348.44;;;24.25;52.69
29197;BME280;62796;42.654;23.316;2022-08-19T04:01:21;94355.72;;;24.21;52.80
29197;BME280;62796;42.654;23.316;2022-08-19T04:03:47;94359.41;;;24.13;52.92
29197;BME280;62796;42.654;23.316;2022-08-19T04:06:16;94366.09;;;24.00;52.78
29197;BME280;62796;42.654;23.316;2022-08-19T04:08:43;94364.09;;;23.97;53.01
29197;BME280;62796;42.654;23.316;2022-08-19T04:11:11;94367.78;;;23.88;53.31
29197;BME280;62796;42.654;23.316;2022-08-19T04:13:37;94354.69;;;23.75;53.47
29197;BME280;62796;42.654;23.316;2022-08-19T04:16:04;94362.81;;;23.75;53.96
29197;BME280;62796;42.654;23.316;2022-08-19T04:18:29;94345.09;;;23.61;53.99
29197;BME280;62796;42.654;23.316;2022-08-19T04:20:55;94369.69;;;23.72;53.68
29197;BME280;62796;42.654;23.316;2022-08-19T04:23:22;94355.66;;;23.66;54.18
29197;BME280;62796;42.654;23.316;2022-08-19T04:25:48;94373.91;;;23.69;53.80
29197;BME280;62796;42.654;23.316;2022-08-19T04:28:14;94383.25;;;23.72;53.69
29197;BME280;62796;42.654;23.316;2022-08-19T04:30:46;94353.03;;;23.54;54.37
29197;BME280;62796;42.654;23.316;2022-08-19T04:33:13;94377.13;;;23.75;54.19
29197;BME280;62796;42.654;23.316;2022-08-19T04:35:42;94377.56;;;23.77;54.25
29197;BME280;62796;42.654;23.316;2022-08-19T04:38:08;94356.94;;;23.73;54.56
29197;BME280;62796;42.654;23.316;2022-08-19T04:40:43;94366.13;;;23.84;55.45
29197;BME280;62796;42.654;23.316;2022-08-19T04:43:27;94364.19;;;23.84;54.74
29197;BME280;62796;42.654;23.316;2022-08-19T04:45:53;94372.06;;;23.90;54.39
29197;BME280;62796;42.654;23.316;2022-08-19T04:48:18;94362.00;;;23.90;54.52
29197;BME280;62796;42.654;23.316;2022-08-19T04:50:52;94364.09;;;23.97;54.29
29197;BME280;62796;42.654;23.316;2022-08-19T04:53:29;94372.38;;;24.04;54.23
29197;BME280;62796;42.654;23.316;2022-08-19T04:55:59;94370.53;;;24.08;54.22
29197;BME280;62796;42.654;23.316;2022-08-19T04:58:28;94359.06;;;24.15;53.67
29197;BME280;62796;42.654;23.316;2022-08-19T05:00:54;94374.22;;;24.35;53.87
29197;BME280;62796;42.654;23.316;2022-08-19T05:03:20;94378.25;;;24.45;53.31
29197;BME280;62796;42.654;23.316;2022-08-19T05:05:47;94381.13;;;24.52;53.50
29197;BME280;62796;42.654;23.316;2022-08-19T05:08:16;94384.00;;;24.59;52.95
29197;BME280;62796;42.654;23.316;2022-08-19T05:10:47;94392.72;;;24.69;52.87
29197;BME280;62796;42.654;23.316;2022-08-19T05:13:13;94371.38;;;24.67;52.67
29197;BME280;62796;42.654;23.316;2022-08-19T05:15:39;94374.16;;;24.71;52.45
29197;BME280;62796;42.654;23.316;2022-08-19T05:18:05;94389.44;;;24.98;52.83
29197;BME280;62796;42.654;23.316;2022-08-19T05:20:49;94390.75;;;25.08;52.16
29197;BME280;62796;42.654;23.316;2022-08-19T05:23:33;94377.66;;;25.14;51.84
29197;BME280;62796;42.654;23.316;2022-08-19T05:25:58;94377.78;;;25.21;52.00
29197;BME280;62796;42.654;23.316;2022-08-19T05:28:23;94384.66;;;25.34;51.95
29197;BME280;62796;42.654;23.316;2022-08-19T05:30:49;94378.94;;;25.39;51.51
29197;BME280;62796;42.654;23.316;2022-08-19T05:33:17;94389.31;;;25.57;51.41
29197;BME280;62796;42.654;23.316;2022-08-19T05:35:42;94375.47;;;25.66;50.87
29197;BME280;62796;42.654;23.316;2022-08-19T05:38:09;94394.34;;;25.82;50.83
29197;BME280;62796;42.654;23.316;2022-08-19T05:40:38;94388.22;;;25.88;49.75
29197;BME280;62796;42.654;23.316;2022-08-19T05:43:07;94380.44;;;25.87;49.52
29197;BME280;62796;42.654;23.316;2022-08-19T05:45:38;94372.31;;;25.90;49.34
29197;BME280;62796;42.654;23.316;2022-08-19T05:48:04;94389.31;;;26.07;49.33
29197;BME280;62796;42.654;23.316;2022-08-19T05:50:29;94384.03;;;26.18;48.89
29197;BME280;62796;42.654;23.316;2022-08-19T05:52:55;94382.19;;;25.99;48.43
29197;BME280;62796;42.654;23.316;2022-08-19T05:55:21;94387.06;;;26.12;48.29
29197;BME280;62796;42.654;23.316;2022-08-19T05:57:48;94384.13;;;26.25;47.78
29197;BME280;62796;42.654;23.316;2022-08-19T06:00:13;94390.25;;;26.48;47.64
29197;BME280;62796;42.654;23.316;2022-08-19T06:02:40;94392.50;;;26.73;47.39
29197;BME280;62796;42.654;23.316;2022-08-19T06:05:06;94380.59;;;26.85;45.86
29197;BME280;62796;42.654;23.316;2022-08-19T06:07:32;94392.88;;;27.05;45.31
29197;BME280;62796;42.654;23.316;2022-08-19T06:09:58;94396.16;;;27.22;44.95
29197;BME280;62796;42.654;23.316;2022-08-19T06:12:24;94390.88;;;27.36;44.66
29197;BME280;62796;42.654;23.316;2022-08-19T06:14:53;94389.09;;;27.55;44.89
29197;BME280;62796;42.654;23.316;2022-08-19T06:17:20;94385.66;;;27.61;44.49
29197;BME280;62796;42.654;23.316;2022-08-19T06:19:46;94383.44;;;27.78;43.91
29197;BME280;62796;42.654;23.316;2022-08-19T06:22:11;94394.94;;;28.01;44.14
29197;BME280;62796;42.654;23.316;2022-08-19T06:24:38;94394.59;;;28.07;43.54
29197;BME280;62796;42.654;23.316;2022-08-19T06:27:03;94394.28;;;28.23;43.93
29197;BME280;62796;42.654;23.316;2022-08-19T06:29:31;94393.22;;;28.41;43.06
29197;BME280;62796;42.654;23.316;2022-08-19T06:31:59;94385.88;;;28.53;42.98
29197;BME280;62796;42.654;23.316;2022-08-19T06:34:26;94391.03;;;28.69;43.11
29197;BME280;62796;42.654;23.316;2022-08-19T06:36:53;94395.00;;;28.93;42.95
29197;BME280;62796;42.654;23.316;2022-08-19T06:39:26;94390.44;;;29.15;42.32
29197;BME280;62796;42.654;23.316;2022-08-19T06:41:56;94375.59;;;29.20;42.25
29197;BME280;62796;42.654;23.316;2022-08-19T06:44:24;94397.53;;;29.52;41.69
29197;BME280;62796;42.654;23.316;2022-08-19T06:46:52;94394.41;;;29.71;41.33
29197;BME280;62796;42.654;23.316;2022-08-19T06:49:17;94398.31;;;29.81;41.14
29197;BME280;62796;42.654;23.316;2022-08-19T06:51:45;94399.09;;;30.03;41.43
29197;BME280;62796;42.654;23.316;2022-08-19T06:54:13;94383.06;;;30.13;40.23
29197;BME280;62796;42.654;23.316;2022-08-19T06:56:38;94391.63;;;30.29;39.83
29197;BME280;62796;42.654;23.316;2022-08-19T06:59:10;94403.72;;;30.50;40.23
29197;BME280;62796;42.654;23.316;2022-08-19T07:01:38;94390.78;;;30.57;39.17
29197;BME280;62796;42.654;23.316;2022-08-19T07:04:06;94400.50;;;30.76;39.46
29197;BME280;62796;42.654;23.316;2022-08-19T07:06:32;94405.16;;;30.97;38.89
29197;BME280;62796;42.654;23.316;2022-08-19T07:08:58;94396.50;;;31.02;38.78
29197;BME280;62796;42.654;23.316;2022-08-19T07:11:23;94404.25;;;31.18;38.78
29197;BME280;62796;42.654;23.316;2022-08-19T07:13:49;94397.94;;;31.25;38.60
29197;BME280;62796;42.654;23.316;2022-08-19T07:16:17;94396.38;;;31.28;38.12
29197;BME280;62796;42.654;23.316;2022-08-19T07:18:46;94400.59;;;31.36;37.95
29197;BME280;62796;42.654;23.316;2022-08-19T07:21:18;94400.59;;;31.43;37.70
29197;BME280;62796;42.654;23.316;2022-08-19T07:23:44;94402.81;;;31.66;38.07
29197;BME280;62796;42.654;23.316;2022-08-19T07:26:20;94395.97;;;31.85;37.43
29197;BME280;62796;42.654;23.316;2022-08-19T07:28:47;94398.56;;;32.03;37.31
29197;BME280;62796;42.654;23.316;2022-08-19T07:31:15;94404.72;;;32.22;37.07
29197;BME280;62796;42.654;23.316;2022-08-19T07:33:43;94410.78;;;32.40;36.24
29197;BME280;62796;42.654;23.316;2022-08-19T07:36:11;94399.31;;;32.49;36.45
29197;BME280;62796;42.654;23.316;2022-08-19T07:38:39;94399.97;;;32.64;36.48
29197;BME280;62796;42.654;23.316;2022-08-19T07:41:06;94396.31;;;32.78;36.29
29197;BME280;62796;42.654;23.316;2022-08-19T07:43:31;94388.66;;;32.92;35.46
29197;BME280;62796;42.654;23.316;2022-08-19T07:45:57;94390.78;;;33.08;35.22
29197;BME280;62796;42.654;23.316;2022-08-19T07:48:24;94395.63;;;33.01;35.15
29197;BME280;62796;42.654;23.316;2022-08-19T07:50:52;94397.06;;;33.09;34.95
29197;BME280;62796;42.654;23.316;2022-08-19T07:53:18;94397.06;;;33.09;34.91
29197;BME280;62796;42.654;23.316;2022-08-19T07:55:44;94392.47;;;32.99;35.43
29197;BME280;62796;42.654;23.316;2022-08-19T07:58:13;94392.13;;;32.97;35.89
29197;BME280;62796;42.654;23.316;2022-08-19T08:00:39;94384.47;;;33.15;35.48
29197;BME280;62796;42.654;23.316;2022-08-19T08:03:05;94395.28;;;33.53;35.20
29197;BME280;62796;42.654;23.316;2022-08-19T08:05:31;94394.34;;;33.91;34.58
29197;BME280;62796;42.654;23.316;2022-08-19T08:08:14;94397.88;;;34.15;33.98
29197;BME280;62796;42.654;23.316;2022-08-19T08:10:59;94391.22;;;34.36;33.97
29197;BME280;62796;42.654;23.316;2022-08-19T08:13:25;94387.44;;;34.50;33.44
29197;BME280;62796;42.654;23.316;2022-08-19T08:15:52;94386.75;;;34.66;33.44
29197;BME280;62796;42.654;23.316;2022-08-19T08:18:18;94388.19;;;34.94;33.53
29197;BME280;62796;42.654;23.316;2022-08-19T08:20:43;94378.97;;;35.21;33.02
29197;BME280;62796;42.654;23.316;2022-08-19T08:23:09;94383.66;;;35.40;32.79
29197;BME280;62796;42.654;23.316;2022-08-19T08:25:57;94388.00;;;35.58;31.62
29197;BME280;62796;42.654;23.316;2022-08-19T08:28:24;94377.41;;;35.72;31.92
29197;BME280;62796;42.654;23.316;2022-08-19T08:30:50;94378.53;;;35.91;30.98
29197;BME280;62796;42.654;23.316;2022-08-19T08:33:24;94377.13;;;36.16;30.88
29197;BME280;62796;42.654;23.316;2022-08-19T08:35:50;94376.78;;;36.30;29.98
29197;BME280;62796;42.654;23.316;2022-08-19T08:38:15;94377.66;;;36.27;28.32
29197;BME280;62796;42.654;23.316;2022-08-19T08:40:53;94367.06;;;36.39;27.90
29197;BME280;62796;42.654;23.316;2022-08-19T08:43:35;94369.41;;;36.40;28.44
29197;BME280;62796;42.654;23.316;2022-08-19T08:46:08;94371.00;;;36.54;28.89
29197;BME280;62796;42.654;23.316;2022-08-19T08:48:58;94366.91;;;36.75;30.01
29197;BME280;62796;42.654;23.316;2022-08-19T08:51:33;94365.84;;;36.98;29.77
29197;BME280;62796;42.654;23.316;2022-08-19T08:54:00;94361.59;;;37.23;29.02
29197;BME280;62796;42.654;23.316;2022-08-19T08:56:26;94350.06;;;37.12;28.85
29197;BME280;62796;42.654;23.316;2022-08-19T08:59:05;94356.78;;;37.11;28.75
29197;BME280;62796;42.654;23.316;2022-08-19T09:01:35;94358.50;;;37.21;28.90
29197;BME280;62796;42.654;23.316;2022-08-19T09:04:04;94356.50;;;37.47;27.80
29197;BME280;62796;42.654;23.316;2022-08-19T09:06:54;94353.66;;;37.64;27.90
29197;BME280;62796;42.654;23.316;2022-08-19T09:09:37;94343.75;;;37.88;27.36
29197;BME280;62796;42.654;23.316;2022-08-19T09:14:36;94344.81;;;38.16;26.33
29197;BME280;62796;42.654;23.316;2022-08-19T09:17:08;94339.72;;;38.15;26.15
29197;BME280;62796;42.654;23.316;2022-08-19T09:19:36;94342.94;;;38.13;26.00
29197;BME280;62796;42.654;23.316;2022-08-19T09:22:11;94341.59;;;38.05;25.35
29197;BME280;62796;42.654;23.316;2022-08-19T09:24:37;94339.84;;;37.98;25.64
29197;BME280;62796;42.654;23.316;2022-08-19T09:27:03;94331.66;;;37.95;26.03
29197;BME280;62796;42.654;23.316;2022-08-19T09:29:29;94322.13;;;37.96;25.04
29197;BME280;62796;42.654;23.316;2022-08-19T09:31:55;94328.09;;;38.07;24.85
29197;BME280;62796;42.654;23.316;2022-08-19T09:34:21;94333.28;;;38.18;25.32
29197;BME280;62796;42.654;23.316;2022-08-19T09:36:46;94320.41;;;38.24;25.46
29197;BME280;62796;42.654;23.316;2022-08-19T09:39:12;94327.63;;;38.22;24.95
29197;BME280;62796;42.654;23.316;2022-08-19T09:41:37;94317.38;;;38.31;25.33
29197;BME280;62796;42.654;23.316;2022-08-19T09:44:02;94321.25;;;37.99;25.79
29197;BME280;62796;42.654;23.316;2022-08-19T09:46:28;94321.16;;;38.25;25.39
29197;BME280;62796;42.654;23.316;2022-08-19T09:48:59;94326.63;;;38.15;24.96
29197;BME280;62796;42.654;23.316;2022-08-19T09:51:26;94318.19;;;38.19;25.43
29197;BME280;62796;42.654;23.316;2022-08-19T09:53:54;94304.78;;;38.17;25.21
29197;BME280;62796;42.654;23.316;2022-08-19T09:56:21;94321.84;;;38.16;23.67
29197;BME280;62796;42.654;23.316;2022-08-19T09:58:48;94307.38;;;37.64;24.09
29197;BME280;62796;42.654;23.316;2022-08-19T10:01:23;94310.66;;;37.59;24.93
29197;BME280;62796;42.654;23.316;2022-08-19T10:03:51;94300.59;;;37.78;23.71
29197;BME280;62796;42.654;23.316;2022-08-19T10:06:18;94305.47;;;37.48;23.98
29197;BME280;62796;42.654;23.316;2022-08-19T10:08:45;94308.38;;;37.45;24.07
29197;BME280;62796;42.654;23.316;2022-08-19T10:11:11;94298.81;;;37.58;24.64
29197;BME280;62796;42.654;23.316;2022-08-19T10:13:36;94297.97;;;37.96;24.39
29197;BME280;62796;42.654;23.316;2022-08-19T10:16:07;94289.81;;;38.28;24.22
29197;BME280;62796;42.654;23.316;2022-08-19T10:18:33;94285.34;;;38.52;24.26
29197;BME280;62796;42.654;23.316;2022-08-19T10:21:14;94297.59;;;38.42;23.09
29197;BME280;62796;42.654;23.316;2022-08-19T10:23:45;94296.06;;;38.06;23.41
29197;BME280;62796;42.654;23.316;2022-08-19T10:26:14;94288.63;;;37.81;23.61
29197;BME280;62796;42.654;23.316;2022-08-19T10:28:40;94293.19;;;38.10;23.41
29197;BME280;62796;42.654;23.316;2022-08-19T10:31:19;94286.25;;;38.27;23.56
29197;BME280;62796;42.654;23.316;2022-08-19T10:33:47;94283.25;;;38.57;24.13
29197;BME280;62796;42.654;23.316;2022-08-19T10:36:19;94278.28;;;38.73;23.82
29197;BME280;62796;42.654;23.316;2022-08-19T10:38:48;94272.59;;;38.77;24.15
29197;BME280;62796;42.654;23.316;2022-08-19T10:41:18;94276.75;;;39.04;23.30
29197;BME280;62796;42.654;23.316;2022-08-19T10:43:44;94271.31;;;39.32;23.16
29197;BME280;62796;42.654;23.316;2022-08-19T10:46:13;94273.94;;;39.44;22.60
29197;BME280;62796;42.654;23.316;2022-08-19T10:48:39;94266.47;;;39.54;23.06
29197;BME280;62796;42.654;23.316;2022-08-19T10:51:06;94266.09;;;39.43;22.85
29197;BME280;62796;42.654;23.316;2022-08-19T10:53:50;94274.66;;;39.58;22.91
29197;BME280;62796;42.654;23.316;2022-08-19T10:56:17;94279.56;;;39.63;23.07
29197;BME280;62796;42.654;23.316;2022-08-19T10:59:02;94267.59;;;39.84;22.87
29197;BME280;62796;42.654;23.316;2022-08-19T11:01:29;94267.91;;;40.14;22.88
29197;BME280;62796;42.654;23.316;2022-08-19T11:03:56;94263.44;;;40.26;22.43
29197;BME280;62796;42.654;23.316;2022-08-19T11:06:25;94272.09;;;40.47;22.67
29197;BME280;62796;42.654;23.316;2022-08-19T11:08:51;94267.78;;;40.36;23.01
29197;BME280;62796;42.654;23.316;2022-08-19T11:11:17;94258.50;;;40.21;22.47
29197;BME280;62796;42.654;23.316;2022-08-19T11:13:43;94265.91;;;39.96;22.79
29197;BME280;62796;42.654;23.316;2022-08-19T11:16:14;94270.09;;;40.01;22.59
29197;BME280;62796;42.654;23.316;2022-08-19T11:18:51;94265.41;;;39.89;22.90
29197;BME280;62796;42.654;23.316;2022-08-19T11:21:23;94265.88;;;39.78;22.68
29197;BME280;62796;42.654;23.316;2022-08-19T11:23:52;94259.44;;;39.99;22.75
29197;BME280;62796;42.654;23.316;2022-08-19T11:26:19;94261.91;;;40.25;22.24
29197;BME280;62796;42.654;23.316;2022-08-19T11:28:45;94254.47;;;40.50;21.64
29197;BME280;62796;42.654;23.316;2022-08-19T11:31:17;94259.66;;;40.75;21.72
29197;BME280;62796;42.654;23.316;2022-08-19T11:33:43;94249.16;;;40.70;21.99
29197;BME280;62796;42.654;23.316;2022-08-19T11:36:09;94247.78;;;40.75;22.01
29197;BME280;62796;42.654;23.316;2022-08-19T11:38:36;94236.34;;;40.82;21.74
29197;BME280;62796;42.654;23.316;2022-08-19T11:41:05;94242.34;;;40.90;22.35
29197;BME280;62796;42.654;23.316;2022-08-19T11:43:32;94238.91;;;40.95;22.29
29197;BME280;62796;42.654;23.316;2022-08-19T11:45:57;94237.75;;;41.11;21.78
29197;BME280;62796;42.654;23.316;2022-08-19T11:48:24;94232.00;;;41.24;21.97
29197;BME280;62796;42.654;23.316;2022-08-19T11:50:52;94235.81;;;41.35;21.17
29197;BME280;62796;42.654;23.316;2022-08-19T11:53:19;94236.47;;;41.54;21.27
29197;BME280;62796;42.654;23.316;2022-08-19T11:55:48;94239.81;;;41.68;20.45
29197;BME280;62796;42.654;23.316;2022-08-19T11:58:16;94237.28;;;41.12;21.04
29197;BME280;62796;42.654;23.316;2022-08-19T12:00:43;94235.34;;;40.52;21.49
29197;BME280;62796;42.654;23.316;2022-08-19T12:03:10;94221.41;;;40.61;21.83
29197;BME280;62796;42.654;23.316;2022-08-19T12:05:37;94220.47;;;40.64;21.86
29197;BME280;62796;42.654;23.316;2022-08-19T12:08:03;94208.03;;;40.41;21.54
29197;BME280;62796;42.654;23.316;2022-08-19T12:10:29;94217.56;;;40.49;21.91
29197;BME280;62796;42.654;23.316;2022-08-19T12:12:54;94203.13;;;40.78;21.30
29197;BME280;62796;42.654;23.316;2022-08-19T12:15:19;94202.47;;;40.93;21.63
29197;BME280;62796;42.654;23.316;2022-08-19T12:17:45;94198.34;;;41.12;21.50
29197;BME280;62796;42.654;23.316;2022-08-19T12:20:11;94195.44;;;41.40;21.32
29197;BME280;62796;42.654;23.316;2022-08-19T12:22:38;94200.34;;;41.69;21.39
29197;BME280;62796;42.654;23.316;2022-08-19T12:25:07;94189.31;;;41.75;20.87
29197;BME280;62796;42.654;23.316;2022-08-19T12:27:33;94197.38;;;41.73;21.14
29197;BME280;62796;42.654;23.316;2022-08-19T12:29:58;94197.69;;;41.75;21.29
29197;BME280;62796;42.654;23.316;2022-08-19T12:32:26;94188.56;;;41.74;20.63
29197;BME280;62796;42.654;23.316;2022-08-19T12:34:52;94185.66;;;41.69;20.80
29197;BME280;62796;42.654;23.316;2022-08-19T12:37:17;94174.59;;;41.60;21.31
29197;BME280;62796;42.654;23.316;2022-08-19T12:39:43;94162.00;;;41.64;21.40
29197;BME280;62796;42.654;23.316;2022-08-19T12:42:10;94179.06;;;41.57;21.48
29197;BME280;62796;42.654;23.316;2022-08-19T12:44:37;94178.44;;;41.38;20.62
29197;BME280;62796;42.654;23.316;2022-08-19T12:47:04;94168.97;;;41.11;21.00
29197;BME280;62796;42.654;23.316;2022-08-19T12:49:30;94169.59;;;41.15;21.69
29197;BME280;62796;42.654;23.316;2022-08-19T12:51:59;94176.91;;;41.04;21.69
29197;BME280;62796;42.654;23.316;2022-08-19T12:54:25;94174.66;;;40.93;22.04
29197;BME280;62796;42.654;23.316;2022-08-19T12:56:51;94172.75;;;40.99;21.35
29197;BME280;62796;42.654;23.316;2022-08-19T12:59:16;94165.91;;;41.09;21.26